Time;durP1;ratioP1;P1;durP2;ratioP2;P2;SDS_P1;SDS_P2;PMS_P1;PMS_P2;Temp;Humidity;BMP_temperature;BMP_pressure;BME280_temperature;BME280_humidity;BME280_pressure;Samples;Min_cycle;Max_cycle;Signal;HPM_P1;HPM_P2
2021/12/18 00:00:32;;;;;;;6.28;4.35;;;;;;;18.03;55.20;104197.34;4801282;29;20063;-86
2021/12/18 00:02:57;;;;;;;6.50;4.93;;;;;;;18.04;54.97;104199.16;4801631;29;20038;-87
2021/12/18 00:05:23;;;;;;;6.65;4.80;;;;;;;18.02;55.32;104186.03;4784504;29;20103;-86
2021/12/18 00:07:48;;;;;;;7.70;4.65;;;;;;;18.04;55.31;104196.53;4791278;29;20492;-87
2021/12/18 00:10:14;;;;;;;7.28;4.38;;;;;;;18.03;54.97;104192.13;4790866;29;20129;-85
2021/12/18 00:12:47;;;;;;;6.00;4.18;;;;;;;18.02;55.16;104192.97;4776774;29;20037;-87
2021/12/18 00:15:13;;;;;;;7.47;4.57;;;;;;;18.03;55.34;104187.84;4777036;29;20363;-85
2021/12/18 00:17:38;;;;;;;6.93;4.45;;;;;;;18.03;55.12;104194.75;4779279;29;20399;-85
2021/12/18 00:20:04;;;;;;;5.63;3.92;;;;;;;18.02;55.27;104191.25;4779892;29;20038;-87
2021/12/18 00:22:29;;;;;;;6.43;4.40;;;;;;;18.02;55.05;104187.75;4779015;29;20038;-85
2021/12/18 00:24:55;;;;;;;6.35;3.95;;;;;;;18.02;55.06;104182.56;4764192;29;20211;-87
2021/12/18 00:27:20;;;;;;;6.72;4.38;;;;;;;18.01;55.35;104189.50;4779105;29;20050;-86
2021/12/18 00:29:45;;;;;;;6.95;4.35;;;;;;;18.01;54.95;104189.50;4793971;29;20030;-86
2021/12/18 00:32:11;;;;;;;6.63;4.47;;;;;;;18.03;55.23;104189.53;4793806;29;20041;-86
2021/12/18 00:34:39;;;;;;;4.65;3.63;;;;;;;18.02;55.05;104191.25;4778853;29;20035;-86
2021/12/18 00:37:04;;;;;;;5.68;4.30;;;;;;;18.03;55.17;104189.53;4779400;29;20107;-86
2021/12/18 00:39:32;;;;;;;5.53;4.05;;;;;;;18.01;55.22;104183.38;4794652;29;20050;-86
2021/12/18 00:42:08;;;;;;;5.30;3.70;;;;;;;18.00;55.12;104185.09;4781010;29;20030;-85
2021/12/18 00:44:35;;;;;;;6.03;4.28;;;;;;;18.01;54.99;104188.59;4780526;29;20560;-86
2021/12/18 00:47:00;;;;;;;6.45;3.90;;;;;;;18.01;54.96;104189.50;4794130;29;20818;-87
2021/12/18 00:49:25;;;;;;;5.38;3.80;;;;;;;18.01;55.03;104186.88;4793845;29;20130;-87
2021/12/18 00:51:51;;;;;;;6.55;3.85;;;;;;;18.00;55.08;104181.59;4778925;29;20037;-85
2021/12/18 00:54:17;;;;;;;5.90;3.90;;;;;;;18.01;54.99;104183.38;4810578;29;20118;-85
2021/12/18 00:56:42;;;;;;;5.53;3.88;;;;;;;18.00;54.89;104174.66;4793763;29;20027;-86
2021/12/18 00:59:08;;;;;;;5.57;3.78;;;;;;;18.00;54.87;104177.25;4793356;29;20027;-87
2021/12/18 01:01:33;;;;;;;5.35;3.70;;;;;;;18.01;55.04;104175.56;4763626;29;20030;-86
2021/12/18 01:03:59;;;;;;;4.85;3.72;;;;;;;18.00;54.96;104171.16;4777929;29;20035;-87
2021/12/18 01:06:24;;;;;;;5.68;3.90;;;;;;;18.00;55.05;104173.78;4763181;29;20035;-87
2021/12/18 01:08:53;;;;;;;4.50;3.35;;;;;;;18.01;54.81;104173.84;4778085;29;20035;-87
2021/12/18 01:17:01;;;;;;;4.10;3.08;;;;;;;17.98;54.78;104180.63;4808983;29;20027;-86
2021/12/18 01:24:52;;;;;;;4.20;3.45;;;;;;;17.99;54.64;104183.31;4794718;29;20062;-87
2021/12/18 01:27:19;;;;;;;4.97;3.55;;;;;;;17.98;54.91;104183.25;4792384;29;20115;-87
2021/12/18 01:29:45;;;;;;;4.72;3.22;;;;;;;17.96;54.98;104175.34;4777516;29;20053;-85
2021/12/18 01:32:10;;;;;;;4.93;3.40;;;;;;;17.97;54.84;104184.09;4777477;29;20114;-85
2021/12/18 01:34:37;;;;;;;5.20;3.40;;;;;;;17.97;54.82;104182.38;4792881;29;20470;-85
2021/12/18 01:37:03;;;;;;;3.70;3.08;;;;;;;17.97;54.75;104182.38;4792987;29;20027;-86
2021/12/18 01:39:28;;;;;;;4.93;3.00;;;;;;;17.97;54.85;104178.88;4777709;29;20045;-86
2021/12/18 01:44:50;;;;;;;4.95;3.60;;;;;;;17.96;54.70;104174.47;4808760;29;20039;-87
2021/12/18 01:52:53;;;;;;;3.85;3.20;;;;;;;17.97;54.79;104178.88;4809072;29;20087;-89
2021/12/18 01:55:28;;;;;;;4.07;3.42;;;;;;;17.96;54.76;104174.47;4808865;29;20130;-88
2021/12/18 01:57:54;;;;;;;5.13;3.33;;;;;;;17.97;54.79;104184.09;4792733;29;20092;-89
2021/12/18 02:00:24;;;;;;;3.97;3.20;;;;;;;17.95;54.72;104175.31;4778067;29;20031;-88
2021/12/18 02:02:50;;;;;;;4.35;3.33;;;;;;;17.95;54.56;104172.72;4792829;29;20027;-88
2021/12/18 02:05:15;;;;;;;4.65;3.30;;;;;;;17.93;54.78;104167.41;4792404;29;20030;-90
2021/12/18 02:07:42;;;;;;;3.10;2.78;;;;;;;17.95;54.69;104170.09;4777315;29;20117;-89
2021/12/18 02:10:16;;;;;;;3.40;2.85;;;;;;;17.95;54.58;104172.72;4792265;29;20033;-89
2021/12/18 02:13:01;;;;;;;3.47;2.95;;;;;;;17.94;54.69;104165.69;4792180;29;20031;-89
2021/12/18 02:20:58;;;;;;;3.58;2.70;;;;;;;17.94;54.63;104176.13;4808690;29;20043;-89
2021/12/18 02:23:24;;;;;;;3.17;2.70;;;;;;;17.93;54.69;104175.25;4791592;29;20106;-88
2021/12/18 02:25:50;;;;;;;3.72;2.83;;;;;;;17.93;54.68;104171.75;4776766;29;20494;-88
2021/12/18 02:28:25;;;;;;;3.70;3.03;;;;;;;17.93;54.70;104174.34;4777220;29;20043;-89
2021/12/18 02:30:54;;;;;;;3.75;2.90;;;;;;;17.92;54.59;104176.06;4808103;29;20423;-90
2021/12/18 02:33:21;;;;;;;5.63;3.38;;;;;;;17.91;54.73;104179.50;4808043;29;20046;-88
2021/12/18 02:35:52;;;;;;;4.45;3.03;;;;;;;17.92;54.41;104173.47;4776915;29;20046;-89
2021/12/18 02:43:53;;;;;;;4.22;2.90;;;;;;;17.90;54.59;104164.69;4794257;29;20035;-88
2021/12/18 02:46:21;;;;;;;3.00;2.50;;;;;;;17.91;54.44;104171.69;4777141;29;20390;-89
2021/12/18 02:48:49;;;;;;;3.78;2.90;;;;;;;17.90;54.85;104169.91;4777542;29;20148;-88
2021/12/18 02:51:18;;;;;;;4.25;2.65;;;;;;;17.90;54.50;104156.88;4791597;29;20026;-88
2021/12/18 02:53:47;;;;;;;3.88;2.83;;;;;;;17.88;54.54;104162.03;4791500;29;20034;-87
2021/12/18 02:56:15;;;;;;;3.58;2.70;;;;;;;17.88;54.68;104166.34;4791220;29;20117;-90
2021/12/18 02:58:43;;;;;;;3.67;2.83;;;;;;;17.90;54.68;104162.09;4792345;29;20394;-88
2021/12/18 03:01:12;;;;;;;4.03;3.08;;;;;;;17.89;54.58;104158.56;4792143;29;20035;-87
2021/12/18 03:03:40;;;;;;;3.67;2.92;;;;;;;17.89;54.57;104152.47;4791238;29;20034;-88
2021/12/18 03:19:00;;;;;;;3.95;2.95;;;;;;;17.87;54.52;104149.81;4808020;29;20027;-89
2021/12/18 03:25:32;;;;;;;;;;;;;;;17.87;54.31;104156.75;4794088;29;20058;-89
2021/12/18 03:28:03;;;;;;;3.60;2.80;;;;;;;17.87;54.33;104156.75;4777256;29;20410;-87
2021/12/18 03:30:29;;;;;;;3.47;2.47;;;;;;;17.86;54.51;104158.47;4792859;29;20027;-87
2021/12/18 03:32:55;;;;;;;4.00;2.50;;;;;;;17.86;54.55;104157.56;4791869;29;20023;-87
2021/12/18 03:35:20;;;;;;;3.40;2.65;;;;;;;17.86;54.73;104157.56;4777267;29;20023;-88
2021/12/18 03:37:46;;;;;;;3.05;2.58;;;;;;;17.85;54.61;104158.38;4776034;29;20071;-88
2021/12/18 03:40:16;;;;;;;2.78;2.28;;;;;;;17.86;54.46;104154.97;4776333;29;20663;-87
2021/12/18 03:42:41;;;;;;;2.83;2.45;;;;;;;17.85;54.65;104153.19;4791013;29;20125;-88
2021/12/18 03:45:08;;;;;;;3.35;2.40;;;;;;;17.84;54.50;104157.50;4790865;29;20122;-87
2021/12/18 03:47:34;;;;;;;3.22;2.53;;;;;;;17.85;54.39;104150.56;4775651;29;20056;-87
2021/12/18 03:49:59;;;;;;;3.97;2.40;;;;;;;17.84;54.26;104149.69;4775642;29;20027;-85
2021/12/18 03:52:25;;;;;;;3.55;2.50;;;;;;;17.84;54.46;104149.69;4779161;29;20035;-88
2021/12/18 03:54:50;;;;;;;3.30;2.65;;;;;;;17.84;54.49;104148.81;4779524;29;20039;-88
2021/12/18 03:57:16;;;;;;;2.60;2.10;;;;;;;17.83;54.47;104147.00;4779746;29;20030;-88
2021/12/18 03:59:42;;;;;;;2.75;2.33;;;;;;;17.83;54.41;104144.41;4794115;29;20371;-88
2021/12/18 04:02:07;;;;;;;3.83;2.25;;;;;;;17.82;54.31;104140.91;4794034;29;20035;-87
2021/12/18 04:04:32;;;;;;;2.75;2.20;;;;;;;17.81;54.28;104141.72;4779251;29;20052;-89
2021/12/18 04:06:59;;;;;;;3.05;2.50;;;;;;;17.82;54.36;104142.63;4779321;29;20073;-90
2021/12/18 04:09:24;;;;;;;3.08;2.30;;;;;;;17.83;54.47;104139.19;4794406;29;20031;-89
2021/12/18 04:11:50;;;;;;;2.83;1.92;;;;;;;17.82;54.03;104143.53;4764711;29;20042;-88
2021/12/18 04:14:17;;;;;;;2.83;2.30;;;;;;;17.81;54.36;104144.31;4779174;29;20414;-88
2021/12/18 04:16:43;;;;;;;2.47;1.90;;;;;;;17.81;54.25;104144.31;4765207;29;20405;-89
2021/12/18 04:19:08;;;;;;;2.90;2.08;;;;;;;17.80;54.26;104145.13;4779296;29;20043;-89
2021/12/18 04:21:34;;;;;;;2.47;1.95;;;;;;;17.81;54.28;104138.19;4764310;29;20042;-88
2021/12/18 04:24:02;;;;;;;2.60;2.17;;;;;;;17.80;54.29;104152.06;4764745;29;20035;-87
2021/12/18 04:26:27;;;;;;;2.45;2.00;;;;;;;17.80;54.11;104141.66;4764497;29;20050;-89
2021/12/18 04:28:53;;;;;;;2.85;2.10;;;;;;;17.80;54.51;104152.94;4779148;29;20092;-89
2021/12/18 04:31:18;;;;;;;2.22;1.75;;;;;;;17.79;54.31;104148.59;4778741;29;20042;-89
2021/12/18 04:33:43;;;;;;;2.63;2.00;;;;;;;17.80;54.12;104162.50;4793914;29;20031;-88
2021/12/18 04:36:09;;;;;;;3.25;1.98;;;;;;;17.79;54.39;104156.41;4778711;29;20031;-89
2021/12/18 04:38:35;;;;;;;2.22;2.00;;;;;;;17.79;54.07;104156.41;4764056;29;20046;-89
2021/12/18 04:41:03;;;;;;;1.95;1.70;;;;;;;17.78;54.14;104157.19;4778824;29;20095;-88
2021/12/18 04:43:29;;;;;;;2.55;2.00;;;;;;;17.79;54.26;104152.88;4793081;29;20062;-88
2021/12/18 04:45:55;;;;;;;2.00;1.70;;;;;;;17.78;54.19;104152.00;4793289;29;20045;-88
2021/12/18 04:48:20;;;;;;;2.20;1.83;;;;;;;17.78;54.27;104151.13;4793196;29;20031;-87
2021/12/18 04:50:45;;;;;;;2.22;1.67;;;;;;;17.78;54.14;104151.13;4778371;29;20035;-87
2021/12/18 04:53:11;;;;;;;2.10;1.63;;;;;;;17.77;54.01;104152.84;4778360;29;20042;-88
2021/12/18 04:55:36;;;;;;;2.40;1.52;;;;;;;17.77;54.28;104152.84;4793428;29;20475;-88
2021/12/18 04:58:02;;;;;;;2.10;1.73;;;;;;;17.78;54.43;104156.31;4793351;29;20494;-87
2021/12/18 05:00:37;;;;;;;2.72;1.80;;;;;;;17.77;54.25;104152.84;4793222;29;20042;-88
2021/12/18 05:03:06;;;;;;;2.90;1.63;;;;;;;17.77;54.25;104157.13;4780144;29;20031;-88
2021/12/18 05:05:32;;;;;;;2.15;1.50;;;;;;;17.76;54.26;104151.03;4793618;29;20030;-88
2021/12/18 05:07:57;;;;;;;2.50;1.80;;;;;;;17.75;54.23;104154.47;4809136;29;20023;-88
2021/12/18 05:10:22;;;;;;;2.75;1.77;;;;;;;17.76;54.26;104147.56;4778250;29;20031;-87
2021/12/18 05:12:48;;;;;;;2.35;1.70;;;;;;;17.76;54.23;104150.16;4763468;29;20126;-87
2021/12/18 05:15:13;;;;;;;3.00;1.70;;;;;;;17.76;53.93;104155.38;4763114;29;20041;-88
2021/12/18 05:17:39;;;;;;;3.05;1.67;;;;;;;17.75;54.31;104151.88;4763373;29;20474;-88
2021/12/18 05:20:05;;;;;;;1.92;1.63;;;;;;;17.74;54.43;104155.28;4778357;29;20035;-88
2021/12/18 05:22:30;;;;;;;1.75;1.50;;;;;;;17.75;54.40;104154.47;4763255;29;20039;-87
2021/12/18 05:24:56;;;;;;;2.03;1.60;;;;;;;17.75;54.24;104162.31;4762933;29;20058;-87
2021/12/18 05:27:21;;;;;;;1.88;1.48;;;;;;;17.74;54.35;104149.19;4778241;29;20062;-86
2021/12/18 05:29:46;;;;;;;1.95;1.58;;;;;;;17.73;54.18;104150.91;4777894;29;20543;-89
2021/12/18 05:32:12;;;;;;;2.13;1.65;;;;;;;17.75;53.98;104151.00;4777801;29;20034;-88
2021/12/18 05:34:38;;;;;;;1.83;1.40;;;;;;;17.74;54.20;104151.81;4777827;29;20117;-89
2021/12/18 05:37:32;;;;;;;1.65;1.35;;;;;;;17.73;54.09;104148.31;4793179;29;20031;-89
2021/12/18 05:39:58;;;;;;;1.85;1.30;;;;;;;17.73;54.23;104150.91;4809129;29;20060;-88
2021/12/18 05:42:24;;;;;;;1.90;1.20;;;;;;;17.73;54.10;104145.72;4777619;29;20111;-87
2021/12/18 05:44:50;;;;;;;1.77;1.48;;;;;;;17.71;54.12;104147.34;4777794;29;20493;-88
2021/12/18 05:47:15;;;;;;;2.08;1.40;;;;;;;17.72;54.12;104150.84;4778487;29;20039;-87
2021/12/18 05:49:40;;;;;;;2.08;1.55;;;;;;;17.71;54.08;104149.97;4777432;29;20037;-88
2021/12/18 05:52:07;;;;;;;1.70;1.23;;;;;;;17.71;54.41;104152.56;4792268;29;20038;-87
2021/12/18 05:54:35;;;;;;;2.00;1.40;;;;;;;17.71;54.19;104154.28;4792292;29;20038;-87
2021/12/18 05:57:03;;;;;;;1.80;1.40;;;;;;;17.70;54.18;104148.16;4793054;29;20053;-89
2021/12/18 05:59:28;;;;;;;2.00;1.50;;;;;;;17.71;54.30;104155.16;4777568;29;20496;-89
2021/12/18 06:01:53;;;;;;;2.20;1.42;;;;;;;17.70;54.23;104158.59;4792921;29;20039;-91
2021/12/18 06:04:19;;;;;;;1.27;1.10;;;;;;;17.69;54.29;104151.63;4777309;29;20173;-93
2021/12/18 06:06:44;;;;;;;2.35;1.48;;;;;;;17.71;54.30;104154.28;4777504;29;20038;-84
2021/12/18 06:09:11;;;;;;;1.83;1.10;;;;;;;17.71;54.40;104155.16;4776964;29;20031;-87
2021/12/18 06:11:38;;;;;;;1.73;1.30;;;;;;;17.72;54.39;104151.72;4777280;29;20064;-85
2021/12/18 06:14:04;;;;;;;1.70;1.15;;;;;;;17.71;54.58;104149.97;4791647;29;20031;-86
2021/12/18 06:16:29;;;;;;;2.75;1.30;;;;;;;17.73;54.48;104158.72;4776971;29;20134;-85
2021/12/18 06:18:54;;;;;;;1.83;1.25;;;;;;;17.71;54.56;104152.56;4777148;29;20057;-89
2021/12/18 06:21:22;;;;;;;1.73;1.20;;;;;;;17.73;54.59;104150.03;4777785;29;20039;-85
2021/12/18 06:23:50;;;;;;;1.52;1.10;;;;;;;17.73;54.60;104156.13;4791335;29;20031;-86
2021/12/18 06:26:16;;;;;;;1.90;1.20;;;;;;;17.74;54.63;104157.00;4791336;29;20054;-86
2021/12/18 06:28:41;;;;;;;2.10;1.20;;;;;;;17.75;54.59;104159.69;4763308;29;20038;-86
2021/12/18 06:31:07;;;;;;;1.73;1.15;;;;;;;17.75;54.56;104161.41;4791536;29;20375;-85
2021/12/18 06:33:32;;;;;;;1.40;1.10;;;;;;;17.75;54.64;104158.81;4791311;29;20034;-84
2021/12/18 06:35:58;;;;;;;1.42;1.10;;;;;;;17.75;54.84;104162.31;4791115;29;20096;-84
2021/12/18 06:38:24;;;;;;;3.90;1.50;;;;;;;17.74;54.66;104157.91;4791134;29;20085;-86
2021/12/18 06:40:49;;;;;;;1.58;1.30;;;;;;;17.75;54.67;104162.31;4791044;29;20394;-85
2021/12/18 06:43:15;;;;;;;2.67;1.50;;;;;;;17.79;54.81;104155.47;4776709;29;20038;-90
2021/12/18 06:45:40;;;;;;;3.53;1.58;;;;;;;17.95;55.33;104163.16;4777697;29;20027;-89
2021/12/18 06:48:06;;;;;;;1.92;1.40;;;;;;;17.98;55.13;104163.28;4791044;29;20398;-86
2021/12/18 06:50:33;;;;;;;2.90;1.10;;;;;;;18.00;55.32;104160.75;4776921;29;20130;-87
2021/12/18 06:52:58;;;;;;;5.57;1.25;;;;;;;18.02;55.57;104159.97;4762829;29;20430;-87
2021/12/18 06:55:24;;;;;;;1.77;1.30;;;;;;;18.05;55.17;104169.63;4761423;29;20038;-90
2021/12/18 06:57:49;;;;;;;2.28;1.27;;;;;;;18.06;55.37;104166.22;4791130;29;20058;-88
2021/12/18 07:00:17;;;;;;;7.15;1.40;;;;;;;18.06;55.49;104161.88;4761526;29;20091;-87
2021/12/18 07:02:43;;;;;;;5.53;1.20;;;;;;;18.07;55.28;104166.28;4791319;29;20038;-88
2021/12/18 07:05:09;;;;;;;2.60;1.38;;;;;;;18.06;55.47;104161.88;4776594;29;20066;-89
2021/12/18 07:07:35;;;;;;;1.75;1.08;;;;;;;18.08;55.63;104159.34;4776395;29;20050;-90
2021/12/18 07:10:04;;;;;;;3.47;1.25;;;;;;;18.09;55.45;104161.13;4793267;29;20027;-85
2021/12/18 07:12:29;;;;;;;5.43;1.27;;;;;;;18.09;55.53;104156.81;4791047;29;20034;-89
2021/12/18 07:14:55;;;;;;;6.38;1.77;;;;;;;18.16;55.65;104162.25;4761882;29;20034;-88
2021/12/18 07:17:20;;;;;;;5.15;2.10;;;;;;;18.15;55.70;104160.50;4791280;29;20027;-83
2021/12/18 07:19:45;;;;;;;4.72;1.55;;;;;;;18.12;55.63;104157.75;4776364;29;21147;-87
2021/12/18 07:22:11;;;;;;;6.38;1.77;;;;;;;18.12;55.52;104163.88;4761297;29;20030;-89
2021/12/18 07:24:36;;;;;;;6.25;1.48;;;;;;;18.12;55.56;104162.97;4775982;29;20037;-89
2021/12/18 07:27:02;;;;;;;3.33;1.33;;;;;;;18.11;55.58;104163.81;4758071;30;20065;-87
2021/12/18 07:29:27;;;;;;;4.93;1.33;;;;;;;18.12;55.52;104160.34;4757938;30;20035;-86
2021/12/18 07:31:53;;;;;;;3.80;1.75;;;;;;;18.12;55.52;104162.97;4787567;30;20039;-88
2021/12/18 07:34:18;;;;;;;4.50;1.45;;;;;;;18.13;55.37;104162.16;4788721;30;20045;-87
2021/12/18 07:36:44;;;;;;;3.03;1.63;;;;;;;18.13;55.64;104168.25;4772666;30;20130;-87
2021/12/18 07:39:10;;;;;;;3.90;1.60;;;;;;;18.13;55.63;104162.16;4772746;30;20471;-87
2021/12/18 07:41:35;;;;;;;2.38;1.30;;;;;;;18.13;55.32;104151.72;4788813;30;20106;-88
2021/12/18 07:44:03;;;;;;;2.10;1.30;;;;;;;18.13;55.17;104162.16;4772705;30;20039;-87
2021/12/18 07:46:29;;;;;;;2.67;1.45;;;;;;;18.13;55.27;104157.81;4789117;30;20090;-88
2021/12/18 07:48:54;;;;;;;3.67;1.40;;;;;;;18.14;55.26;104158.69;4773374;30;20055;-88
2021/12/18 07:51:20;;;;;;;3.88;1.27;;;;;;;18.13;55.34;104160.44;4788892;30;20043;-88
2021/12/18 07:53:45;;;;;;;3.47;1.40;;;;;;;18.15;55.15;104163.09;4789650;30;20027;-89
2021/12/18 07:56:10;;;;;;;3.35;1.40;;;;;;;18.12;55.16;104153.44;4773082;30;20118;-91
2021/12/18 07:58:37;;;;;;;3.08;1.50;;;;;;;18.05;55.59;104159.22;4772808;30;20027;-85
2021/12/18 08:01:03;;;;;;;7.85;1.30;;;;;;;18.01;55.18;104150.41;4772661;30;20395;-85
2021/12/18 08:03:29;;;;;;;2.38;1.42;;;;;;;17.98;55.01;104157.19;4772305;30;20042;-86
2021/12/18 08:05:55;;;;;;;3.88;1.85;;;;;;;17.97;55.00;104150.22;4773178;30;20036;-87
2021/12/18 08:08:20;;;;;;;6.63;3.20;;;;;;;18.09;54.29;104153.31;4772880;30;20475;-90
2021/12/18 08:10:46;;;;;;;7.30;2.75;;;;;;;18.09;54.32;104154.22;4757458;30;20178;-85
2021/12/18 08:13:12;;;;;;;5.32;2.25;;;;;;;18.02;54.08;104154.78;4773617;30;20034;-87
2021/12/18 08:15:37;;;;;;;7.10;2.40;;;;;;;18.02;53.94;104154.78;4773508;30;20088;-84
2021/12/18 08:18:06;;;;;;;4.88;2.38;;;;;;;18.03;53.67;104160.84;4772111;30;20047;-87
2021/12/18 08:20:32;;;;;;;4.10;1.95;;;;;;;18.03;53.80;104159.16;4772486;30;20039;-87
2021/12/18 08:22:58;;;;;;;4.60;2.15;;;;;;;18.05;53.77;104161.81;4757601;30;20440;-88
2021/12/18 08:25:23;;;;;;;5.75;2.10;;;;;;;18.04;53.53;104163.53;4775214;29;20062;-88
2021/12/18 08:27:49;;;;;;;3.35;1.85;;;;;;;18.06;53.49;104164.50;4790351;29;20475;-87
2021/12/18 08:30:14;;;;;;;5.10;1.77;;;;;;;18.05;53.38;104167.03;4775493;29;20038;-87
2021/12/18 08:32:40;;;;;;;5.78;1.90;;;;;;;18.05;53.59;104162.72;4760705;29;20037;-86
2021/12/18 08:35:07;;;;;;;3.58;1.67;;;;;;;18.05;53.51;104169.63;4775505;29;20035;-88
2021/12/18 08:37:33;;;;;;;4.13;1.38;;;;;;;18.04;53.31;104167.88;4792146;29;20031;-88
2021/12/18 08:39:58;;;;;;;3.13;1.45;;;;;;;18.03;53.60;104176.50;4778940;29;20039;-87
2021/12/18 08:42:23;;;;;;;2.88;1.40;;;;;;;18.03;53.69;104181.72;4793688;29;20039;-87
2021/12/18 08:44:49;;;;;;;2.30;1.35;;;;;;;18.01;53.50;104171.25;4793865;29;20035;-87
2021/12/18 08:47:16;;;;;;;3.83;1.65;;;;;;;18.00;54.08;104174.66;4779122;29;20041;-87
2021/12/18 08:49:42;;;;;;;3.05;1.38;;;;;;;18.02;53.89;104174.72;4810242;29;20054;-88
2021/12/18 08:52:07;;;;;;;2.90;1.58;;;;;;;18.01;53.74;104178.19;4779164;29;20134;-87
2021/12/18 08:54:33;;;;;;;3.55;1.65;;;;;;;18.01;53.99;104178.19;4778732;29;20035;-86
2021/12/18 08:56:58;;;;;;;3.88;1.63;;;;;;;18.00;53.83;104177.25;4778829;29;20084;-87
2021/12/18 08:59:23;;;;;;;2.28;1.50;;;;;;;18.01;53.74;104183.38;4779192;29;20031;-87
2021/12/18 09:01:49;;;;;;;3.50;1.48;;;;;;;18.01;53.83;104180.78;4764001;29;20031;-87
2021/12/18 09:04:14;;;;;;;1.95;1.30;;;;;;;17.99;53.62;104180.72;4809422;29;20114;-88
2021/12/18 09:06:40;;;;;;;2.78;1.40;;;;;;;18.00;53.81;104181.59;4793347;29;20063;-87
2021/12/18 09:09:06;;;;;;;2.35;1.33;;;;;;;18.00;53.72;104176.38;4778444;29;20035;-87
2021/12/18 09:11:32;;;;;;;3.65;1.65;;;;;;;17.99;53.93;104180.72;4795245;29;20122;-87
2021/12/18 09:13:57;;;;;;;2.55;1.40;;;;;;;17.99;53.89;104178.09;4780863;29;20475;-86
2021/12/18 09:16:23;;;;;;;3.00;1.40;;;;;;;18.00;53.81;104179.88;4795957;29;20031;-87
2021/12/18 09:18:48;;;;;;;2.65;1.50;;;;;;;17.98;53.80;104173.69;4763949;29;20026;-87
2021/12/18 09:21:14;;;;;;;3.47;1.33;;;;;;;17.99;53.83;104172.91;4779233;29;20123;-86
2021/12/18 09:23:39;;;;;;;1.98;1.20;;;;;;;18.00;53.56;104165.97;4779686;29;20038;-86
2021/12/18 09:26:04;;;;;;;2.40;1.30;;;;;;;18.00;53.74;104172.06;4763949;29;20147;-87
2021/12/18 09:28:30;;;;;;;2.47;1.20;;;;;;;18.01;53.66;104163.44;4778247;29;20129;-86
2021/12/18 09:30:55;;;;;;;2.80;1.50;;;;;;;18.00;53.66;104168.56;4763245;29;20038;-87
2021/12/18 09:33:22;;;;;;;3.55;1.50;;;;;;;18.00;53.83;104166.84;4777720;29;20033;-86
2021/12/18 09:35:48;;;;;;;2.35;1.45;;;;;;;17.99;53.74;104165.06;4777806;29;20084;-86
2021/12/18 09:38:13;;;;;;;2.60;1.45;;;;;;;18.00;53.52;104158.16;4792420;29;20039;-87
2021/12/18 09:40:39;;;;;;;2.38;1.35;;;;;;;18.01;54.02;104159.94;4777811;29;20095;-86
2021/12/18 09:43:05;;;;;;;2.22;1.40;;;;;;;18.01;53.61;104159.94;4777529;29;20035;-85
2021/12/18 09:45:30;;;;;;;3.05;1.45;;;;;;;18.01;53.76;104170.38;4792059;29;20027;-86
2021/12/18 09:47:57;;;;;;;2.28;1.40;;;;;;;18.00;53.93;104172.06;4808636;29;20106;-87
2021/12/18 09:50:25;;;;;;;2.50;1.55;;;;;;;18.00;53.96;104177.25;4792373;29;20129;-86
2021/12/18 09:52:51;;;;;;;3.00;1.48;;;;;;;18.00;53.93;104165.97;4808534;29;20026;-87
2021/12/18 09:55:17;;;;;;;2.83;1.52;;;;;;;18.00;54.04;104160.75;4777380;29;20035;-87
2021/12/18 09:57:43;;;;;;;2.53;1.60;;;;;;;18.02;54.00;104169.53;4778334;29;20451;-85
2021/12/18 10:00:13;;;;;;;2.63;1.60;;;;;;;18.03;54.16;104173.88;4793293;29;20035;-88
2021/12/18 10:02:39;;;;;;;2.55;1.50;;;;;;;18.05;54.18;104164.44;4793400;29;20067;-87
2021/12/18 10:05:05;;;;;;;1.77;1.20;;;;;;;18.05;54.52;104164.44;4792778;29;20034;-87
2021/12/18 10:07:31;;;;;;;2.95;1.70;;;;;;;18.06;54.30;104169.72;4777220;29;20125;-86
2021/12/18 10:10:00;;;;;;;2.47;1.52;;;;;;;18.07;54.30;104158.47;4777230;29;20089;-86
2021/12/18 10:12:31;;;;;;;3.13;1.60;;;;;;;18.09;54.56;104163.72;4791628;29;20031;-85
2021/12/18 10:15:12;;;;;;;2.30;1.50;;;;;;;18.09;54.45;104162.03;4808095;29;20037;-84
2021/12/18 10:17:44;;;;;;;2.20;1.70;;;;;;;18.09;54.40;104162.03;4791773;29;20033;-85
2021/12/18 10:20:10;;;;;;;2.05;1.27;;;;;;;18.10;54.64;104157.69;4791923;29;20031;-86
2021/12/18 10:22:55;;;;;;;2.63;1.40;;;;;;;18.11;54.89;104159.47;4791595;29;20042;-86
2021/12/18 10:25:35;;;;;;;3.25;1.60;;;;;;;18.12;54.56;104157.75;4790823;29;20133;-86
2021/12/18 10:28:10;;;;;;;2.38;1.30;;;;;;;18.13;55.05;104157.81;4792038;29;20030;-86
2021/12/18 10:30:42;;;;;;;3.20;1.77;;;;;;;18.14;54.75;104157.00;4792178;29;20031;-86
2021/12/18 10:33:11;;;;;;;5.38;1.30;;;;;;;18.13;54.64;104155.22;4778467;29;20042;-86
2021/12/18 10:35:43;;;;;;;2.58;1.70;;;;;;;18.12;54.70;104158.66;4791015;29;20033;-86
2021/12/18 10:38:39;;;;;;;1.90;1.60;;;;;;;18.12;54.97;104157.75;4791661;29;20043;-88
2021/12/18 10:41:24;;;;;;;2.75;1.52;;;;;;;18.10;54.88;104152.50;4783168;29;20045;-86
2021/12/18 10:44:03;;;;;;;3.25;1.90;;;;;;;18.10;54.74;104160.31;4791499;29;20398;-86
2021/12/18 10:46:32;;;;;;;3.47;1.80;;;;;;;18.08;54.68;104148.94;4791129;29;20100;-86
2021/12/18 10:49:07;;;;;;;3.42;1.95;;;;;;;18.10;54.66;104152.50;4776579;29;20046;-85
2021/12/18 10:51:35;;;;;;;3.65;2.08;;;;;;;18.08;54.83;104149.81;4791021;29;20030;-84
2021/12/18 10:54:13;;;;;;;4.28;2.05;;;;;;;18.08;55.39;104142.00;4791206;29;20030;-84
2021/12/18 10:56:44;;;;;;;10.30;3.45;;;;;;;18.12;56.13;104145.63;4790881;29;20023;-84
2021/12/18 10:59:45;;;;;;;21.23;6.55;;;;;;;18.15;56.91;104144.84;4790622;29;20035;-82
2021/12/18 11:02:13;;;;;;;21.00;5.65;;;;;;;18.19;56.95;104137.22;4779004;29;20042;-83
2021/12/18 11:04:40;;;;;;;22.75;7.03;;;;;;;18.18;57.07;104135.44;4776399;29;20113;-86
2021/12/18 11:07:41;;;;;;;24.70;7.10;;;;;;;18.25;57.45;104137.47;4793216;29;20038;-87
2021/12/18 11:10:42;;;;;;;20.45;6.45;;;;;;;18.25;57.69;104139.19;4779264;29;20080;-86
2021/12/18 11:15:55;;;;;;;19.88;7.18;;;;;;;18.25;57.99;104137.47;4807563;29;20439;-84
2021/12/18 11:18:21;;;;;;;17.45;6.20;;;;;;;18.25;57.98;104134.88;4776149;29;20034;-86
2021/12/18 11:20:49;;;;;;;16.98;6.25;;;;;;;18.24;57.68;104138.28;4791858;29;20034;-86
2021/12/18 11:23:21;;;;;;;16.92;5.40;;;;;;;18.25;57.71;104142.69;4791110;29;20031;-87
2021/12/18 11:25:50;;;;;;;16.63;5.88;;;;;;;18.25;57.54;104133.97;4791102;29;20062;-88
2021/12/18 11:28:16;;;;;;;14.25;5.97;;;;;;;18.26;57.42;104135.75;4776497;29;20047;-86
2021/12/18 11:30:41;;;;;;;16.75;5.45;;;;;;;18.26;57.68;104136.63;4790977;29;20363;-85
2021/12/18 11:33:07;;;;;;;10.63;5.32;;;;;;;18.28;57.23;104132.38;4791288;29;20030;-86
2021/12/18 11:35:33;;;;;;;12.20;5.32;;;;;;;18.27;57.10;104130.59;4775985;29;20035;-87
2021/12/18 11:38:04;;;;;;;12.63;4.97;;;;;;;18.29;57.04;104130.63;4776163;29;20046;-82
2021/12/18 11:40:35;;;;;;;12.82;5.25;;;;;;;18.32;56.80;104128.19;4791378;29;20026;-84
2021/12/18 11:43:06;;;;;;;12.98;5.63;;;;;;;18.33;56.90;104123.84;4790349;29;20103;-85
2021/12/18 11:45:34;;;;;;;14.07;5.40;;;;;;;18.32;57.00;104119.47;4790278;29;20030;-83
2021/12/18 11:48:00;;;;;;;12.43;5.03;;;;;;;18.33;56.76;104114.28;4806643;29;20068;-87
2021/12/18 11:50:32;;;;;;;14.43;5.72;;;;;;;18.33;56.73;104108.19;4775750;29;20465;-83
2021/12/18 11:53:03;;;;;;;14.90;5.25;;;;;;;18.34;56.78;104110.00;4790396;29;20026;-86
2021/12/18 11:55:32;;;;;;;11.75;5.25;;;;;;;18.33;56.76;104109.09;4791089;29;20039;-87
2021/12/18 11:58:00;;;;;;;10.00;4.82;;;;;;;18.32;56.46;104109.91;4790823;29;20087;-82
2021/12/18 12:00:31;;;;;;;11.60;5.22;;;;;;;18.32;56.74;104096.00;4790430;29;20394;-84
2021/12/18 12:02:59;;;;;;;9.00;4.72;;;;;;;18.33;56.47;104092.56;4790569;29;20034;-82
2021/12/18 12:05:51;;;;;;;10.52;4.90;;;;;;;18.34;56.46;104096.97;4791790;29;20506;-82
2021/12/18 12:08:22;;;;;;;13.60;4.78;;;;;;;18.34;56.31;104094.34;4786796;29;20054;-81
2021/12/18 12:11:15;;;;;;;10.25;5.18;;;;;;;18.35;55.80;104090.91;4790407;29;20551;-82
2021/12/18 12:13:58;;;;;;;10.93;4.90;;;;;;;18.34;56.13;104091.75;4795060;29;20043;-83
2021/12/18 12:16:45;;;;;;;12.82;4.53;;;;;;;18.34;56.01;104091.75;4794336;29;20284;-83